Date,TemperatureHighF,TemperatureAvgF,TemperatureLowF,DewpointHighF,DewpointAvgF,DewpointLowF,HumidityHigh,HumidityAvg,HumidityLow,PressureMaxIn,PressureMinIn,WindSpeedMaxMPH,WindSpeedAvgMPH,GustSpeedMaxMPH,PrecipitationSumIn
2013-1-1,65,63,61,61,59,57,91,87,80,0.00,40.00,13,5,32,1.21
2013-1-2,67,64,61,63,60,58,94,88,77,0.00,40.00,12,5,30,0.49
2013-1-3,68,63,60,64,60,56,95,90,82,0.00,40.00,17,5,46,0.49
2013-1-4,64,62,60,60,58,56,90,88,86,0.00,40.00,17,10,48,0.62
2013-1-5,64,62,60,59,56,54,87,83,78,0.00,40.00,17,11,48,0.85
2013-1-6,72,64,60,57,54,51,85,71,55,0.00,40.00,20,11,55,0.02
2013-1-7,72,65,60,58,54,47,86,70,44,0.00,40.00,12,7,37,0.01
2013-1-8,70,64,60,59,55,51,91,75,57,0.00,40.00,9,5,32,0.01
2013-1-9,72,65,61,60,57,53,86,75,60,0.00,40.00,10,5,30,0.00
2013-1-10,73,66,60,55,52,45,76,63,52,0.00,40.00,12,6,31,0.00
2013-1-11,73,64,59,60,54,51,83,72,54,0.00,40.00,9,4,24,0.00
2013-1-12,78,67,61,62,58,52,91,73,52,0.00,40.00,7,4,19,0.01
2013-1-13,78,66,59,64,57,49,91,73,55,0.00,40.00,6,2,15,0.01
2013-1-14,68,63,61,66,60,54,98,91,76,0.00,40.00,8,5,29,0.83
2013-1-15,75,65,58,64,59,54,95,82,64,0.00,40.00,7,4,17,0.41
2013-1-16,72,62,54,59,52,41,96,72,42,0.00,40.00,7,3,15,0.00
2013-1-17,67,61,55,59,54,49,94,81,65,0.00,40.00,4,2,15,0.03
2013-1-18,72,61,56,56,53,49,88,76,45,0.00,40.00,15,6,29,0.01
2013-1-19,66,59,55,54,50,47,82,72,56,0.00,40.00,13,10,30,0.01
2013-1-20,65,58,55,52,50,47,81,73,60,0.00,40.00,15,10,35,0.00
2013-1-21,70,62,56,56,52,49,84,72,59,0.00,40.00,9,5,32,0.00
2013-1-22,76,64,57,57,52,48,80,66,41,0.00,40.00,7,4,23,0.00
2013-1-23,75,63,56,61,56,48,96,78,61,0.00,40.00,9,3,19,0.01
2013-1-24,73,63,58,61,58,51,98,84,66,0.00,40.00,4,2,13,0.02
2013-1-25,73,64,58,62,56,49,97,77,54,0.00,40.00,5,2,12,0.01
2013-1-26,78,64,57,61,58,54,97,81,56,0.00,40.00,4,2,13,0.00
2013-1-27,76,63,56,61,57,52,97,82,58,0.00,40.00,8,5,28,0.00
2013-1-28,66,62,59,62,59,53,98,91,68,0.00,40.00,7,4,18,0.65
2013-1-29,69,62,60,64,59,53,100,90,75,0.00,40.00,5,2,13,0.08
2013-1-30,71,64,58,64,58,54,92,83,67,0.00,40.00,5,2,11,0.01
2013-1-31,70,64,61,62,59,55,92,83,72,0.00,40.00,14,7,30,0.57
2013-2-1,74,64,57,59,48,35,92,61,29,0.00,40.00,12,6,36,0.35
2013-2-2,75,65,56,56,52,47,80,63,50,0.00,40.00,10,4,33,0.00
2013-2-3,75,62,55,56,47,12,81,59,16,0.00,40.00,12,5,36,0.00
2013-2-4,68,60,57,58,52,47,87,75,58,0.00,40.00,13,8,38,0.07
2013-2-5,71,62,57,56,52,48,85,72,58,0.00,40.00,13,6,34,0.06
2013-2-6,68,61,57,61,57,54,97,86,75,0.00,40.00,9,4,27,0.23
2013-2-7,71,65,59,59,56,51,85,74,61,0.00,40.00,9,5,26,0.01
2013-2-8,74,66,59,60,54,48,87,66,55,0.00,40.00,8,4,19,0.00
2013-2-9,71,63,57,57,53,50,90,72,58,0.00,40.00,9,5,21,0.05
2013-2-10,69,64,59,57,54,50,93,72,60,0.00,40.00,12,6,30,0.05
2013-2-11,70,62,58,61,57,53,93,82,68,0.00,40.00,14,6,35,0.03
2013-2-12,68,60,55,56,53,50,88,78,63,0.00,40.00,8,6,27,0.02
2013-2-13,67,60,55,53,50,47,79,71,57,0.00,40.00,10,6,22,0.00
2013-2-14,70,61,56,54,52,48,84,71,54,0.00,40.00,8,4,24,0.00
2013-2-15,76,63,57,57,52,45,87,69,38,0.00,40.00,11,5,32,0.00
2013-2-16,67,61,58,56,52,48,87,73,60,0.00,40.00,19,7,41,0.08
2013-2-17,63,60,57,56,52,48,88,75,66,0.00,40.00,17,9,45,0.33
2013-2-18,63,59,56,56,52,49,87,78,62,0.00,40.00,19,14,60,0.40
2013-2-19,66,61,56,54,49,44,85,67,55,0.00,40.00,13,8,44,0.01
2013-2-20,67,62,59,55,52,49,85,71,58,0.00,40.00,17,11,43,0.02
2013-2-21,65,62,59,59,56,51,85,80,72,0.00,40.00,14,9,36,0.31
2013-2-22,68,64,60,59,57,54,86,79,69,0.00,40.00,14,8,39,0.27
2013-2-23,69,63,59,58,55,52,87,75,61,0.00,40.00,10,6,30,0.03
2013-2-24,67,61,58,57,53,50,86,75,62,0.00,40.00,8,5,30,0.04
2013-2-25,68,62,57,57,53,49,80,72,60,0.00,40.00,13,7,33,0.01
2013-2-26,66,61,58,56,53,49,86,74,63,0.00,40.00,13,7,35,0.00
2013-2-27,71,62,57,54,51,48,79,67,50,0.00,40.00,15,7,35,0.01
2013-2-28,67,61,57,52,50,48,75,66,55,0.00,40.00,18,9,40,0.00
2013-3-1,66,60,57,53,50,46,79,69,57,0.00,40.00,10,7,34,0.00
2013-3-2,69,62,57,52,50,47,81,65,49,0.00,40.00,10,5,29,0.00
2013-3-3,70,61,56,52,48,44,75,63,51,0.00,40.00,9,6,27,0.00
2013-3-4,70,61,56,53,49,46,75,65,49,0.00,40.00,9,5,30,0.00
2013-3-5,73,62,54,54,49,45,77,65,44,0.00,40.00,8,5,30,0.00
2013-3-6,76,63,57,56,53,49,87,71,48,0.00,40.00,6,4,20,0.00
2013-3-7,79,64,57,57,53,49,89,68,41,0.00,40.00,6,3,17,0.00
2013-3-8,77,62,53,62,55,51,96,82,41,0.00,40.00,5,3,15,0.08
2013-3-9,64,61,59,64,61,56,100,99,92,0.00,40.00,7,6,27,0.21
2013-3-10,62,59,56,62,59,56,100,99,93,0.00,40.00,8,4,22,4.57
2013-3-11,74,63,55,64,59,55,100,88,66,0.00,40.00,4,2,13,0.76
2013-3-12,70,62,57,63,57,50,98,84,67,0.00,40.00,6,3,15,0.07
2013-3-13,73,62,54,59,53,45,96,74,53,0.00,40.00,6,3,13,0.07
2013-3-14,73,62,56,61,58,53,98,86,59,0.00,40.00,4,2,12,0.00
2013-3-15,70,62,57,60,57,54,100,85,65,0.00,40.00,4,2,14,0.00
2013-3-16,64,58,55,57,53,49,99,83,63,0.00,40.00,11,8,28,0.00
2013-3-17,71,59,54,55,51,42,91,75,50,0.00,40.00,8,5,18,0.06
2013-3-18,73,60,51,55,51,45,97,73,47,0.00,40.00,5,3,14,0.02
2013-3-19,75,63,52,58,51,45,93,68,42,0.00,40.00,6,3,20,0.00
2013-3-20,78,65,56,61,54,49,85,70,45,0.00,40.00,8,4,16,0.00
2013-3-21,80,68,58,64,59,52,93,74,57,0.00,40.00,5,3,14,0.00
2013-3-22,68,64,61,65,63,61,100,98,87,0.00,40.00,5,3,16,0.21
2013-3-23,68,63,60,63,61,59,100,95,81,0.00,40.00,8,4,21,0.81
2013-3-24,67,63,60,65,60,54,100,92,79,0.00,40.00,7,3,20,0.01
2013-3-25,75,65,59,65,60,56,100,85,67,0.00,40.00,6,2,14,0.03
2013-3-26,75,65,57,65,60,56,98,85,61,0.00,40.00,3,2,12,0.03
2013-3-27,72,63,58,64,59,55,98,86,69,0.00,40.00,4,2,9,0.14
2013-3-28,70,65,60,60,58,54,86,77,66,0.00,40.00,10,7,25,1.42
2013-3-29,70,63,59,60,58,54,95,82,70,0.00,40.00,9,4,28,0.00
2013-3-30,75,62,58,64,56,-100,99,85,63,0.00,40.00,11,4,25,0.02
2013-3-31,64,58,54,56,51,46,98,78,55,0.00,40.00,12,9,29,0.03
2013-4-1,65,57,53,53,51,48,89,79,58,0.00,40.00,11,7,25,0.02
2013-4-2,67,59,53,53,51,47,89,76,61,0.00,40.00,9,6,20,0.01
2013-4-3,75,63,54,55,52,47,92,69,49,0.00,40.00,6,4,17,0.00
2013-4-4,78,65,55,59,52,45,86,64,44,0.00,40.00,5,3,20,0.00
2013-4-5,79,68,59,62,56,50,89,66,46,0.00,40.00,7,4,15,0.00
2013-4-6,81,68,61,68,62,53,98,81,62,0.00,40.00,5,2,16,0.00
2013-4-7,80,67,60,65,60,55,100,80,54,0.00,40.00,6,3,16,0.00
2013-4-8,76,67,60,61,57,53,100,73,51,0.00,40.00,7,4,22,0.00
2013-4-9,73,65,58,62,57,54,93,76,62,0.00,40.00,6,3,26,0.00
2013-4-10,75,67,59,61,56,53,88,71,50,0.00,40.00,9,4,25,0.00
2013-4-11,75,68,60,62,60,55,96,79,64,0.00,40.00,6,3,19,0.00
2013-4-12,78,67,61,63,60,55,98,79,59,0.00,40.00,7,3,14,0.00
2013-4-13,78,66,59,66,60,51,100,84,55,0.00,40.00,7,3,24,0.11
2013-4-14,67,64,60,66,64,58,100,99,92,0.00,40.00,5,4,22,0.01
2013-4-15,77,67,60,66,62,58,100,87,69,0.00,40.00,5,3,17,0.01
2013-4-16,76,67,60,66,60,54,100,80,63,0.00,40.00,6,3,16,0.00
2013-4-17,76,67,60,64,57,51,82,70,57,0.00,40.00,6,4,20,0.00
2013-4-18,75,67,61,61,58,55,85,73,55,0.00,40.00,9,5,30,0.00
2013-4-19,75,66,61,64,59,52,89,77,65,0.00,40.00,12,5,29,0.00
2013-4-20,78,67,59,64,61,56,100,82,62,0.00,40.00,5,2,14,0.00
2013-4-21,75,66,58,65,62,57,100,87,67,0.00,40.00,4,2,15,0.00
2013-4-22,76,65,60,66,63,58,100,92,67,0.00,40.00,4,3,16,0.02
2013-4-23,75,66,60,67,64,60,100,93,75,0.00,40.00,6,3,17,0.09
2013-4-24,74,66,61,67,64,59,100,94,75,0.00,40.00,8,2,23,0.29
2013-4-25,76,69,62,62,57,53,90,69,49,0.00,40.00,8,5,26,0.01
2013-4-26,77,67,60,59,55,50,85,67,43,0.00,40.00,7,5,21,0.00
2013-4-27,79,68,58,63,56,50,97,69,44,0.00,40.00,5,3,22,0.00
2013-4-28,79,68,59,66,60,54,100,77,55,0.00,40.00,5,2,15,0.00
2013-4-29,76,67,60,68,64,59,100,89,66,0.00,40.00,5,3,19,0.01
2013-4-30,79,66,61,68,63,58,100,89,64,0.00,40.00,6,2,12,0.17
2013-5-1,76,67,59,65,60,55,92,77,64,0.00,40.00,8,4,27,0.04
2013-5-2,77,68,61,64,60,55,97,77,50,0.00,40.00,7,3,17,0.01
2013-5-3,76,66,58,63,60,55,100,81,58,0.00,40.00,3,2,13,0.01
2013-5-4,76,67,58,64,60,52,97,79,58,0.00,40.00,6,3,14,0.00
2013-5-5,72,64,61,66,62,58,100,95,81,0.00,40.00,5,4,21,0.54
2013-5-6,72,65,59,68,64,58,100,96,81,0.00,40.00,5,2,15,1.06
2013-5-7,77,67,57,66,62,56,100,84,62,0.00,40.00,5,2,13,0.02
2013-5-8,76,67,61,66,63,61,100,89,68,0.00,40.00,5,2,13,0.00
2013-5-9,79,68,61,69,65,61,100,90,70,0.00,40.00,4,2,12,0.00
2013-5-10,76,66,60,69,61,-100,100,89,69,0.00,40.00,7,3,18,0.11
2013-5-11,72,65,63,66,62,-100,98,91,76,0.00,40.00,12,7,29,0.05
2013-5-12,73,67,62,66,64,61,100,89,73,0.00,40.00,12,5,27,0.11
2013-5-13,75,68,64,66,63,59,97,82,68,0.00,40.00,11,5,31,0.01
2013-5-14,77,70,64,63,60,56,90,73,58,0.00,40.00,9,5,35,0.00
2013-5-15,78,69,63,63,61,59,88,76,58,0.00,40.00,10,4,31,0.00
2013-5-16,75,64,62,62,44,-100,86,74,59,0.00,40.00,11,8,32,0.00
2013-5-17,75,67,62,60,56,-100,87,71,56,0.00,40.00,11,7,29,0.00
2013-5-18,76,67,60,66,60,54,98,80,58,0.00,40.00,5,2,13,0.38
2013-5-19,75,66,59,66,60,57,100,85,67,0.00,40.00,7,3,17,0.29
2013-5-20,75,66,58,66,62,55,100,88,70,0.00,40.00,5,3,13,0.18
2013-5-21,77,67,59,65,60,55,96,79,55,0.00,40.00,6,3,14,0.00
2013-5-22,79,69,60,66,61,55,90,76,56,0.00,40.00,6,4,14,0.00
2013-5-23,79,70,62,67,60,56,83,72,57,0.00,40.00,6,3,20,0.00
2013-5-24,77,70,64,66,60,54,84,71,60,0.00,40.00,12,5,32,0.00
2013-5-25,74,67,63,65,60,56,89,79,65,0.00,40.00,12,6,33,0.00
2013-5-26,78,69,64,62,59,57,82,71,57,0.00,40.00,10,7,30,0.00
2013-5-27,78,69,62,63,59,55,82,71,53,0.00,40.00,10,5,30,0.00
2013-5-28,79,68,62,64,61,57,95,78,56,0.00,40.00,7,3,21,0.01
2013-5-29,78,68,62,68,64,59,99,87,67,0.00,40.00,3,2,10,0.01
2013-5-30,79,69,61,68,62,58,98,80,60,0.00,40.00,7,4,18,0.01
2013-5-31,79,69,61,68,63,58,100,83,66,0.00,40.00,9,4,21,0.00
2013-6-1,79,71,65,67,62,58,86,73,61,0.00,40.00,8,5,23,0.00
2013-6-2,77,70,64,68,62,58,98,78,59,0.00,40.00,11,6,34,0.00
2013-6-3,77,68,64,63,60,57,85,76,57,0.00,40.00,7,4,27,0.00
2013-6-4,81,69,63,64,59,56,93,71,45,0.00,40.00,10,4,28,0.00
2013-6-5,79,68,62,66,59,53,87,72,56,0.00,40.00,12,6,34,0.00
2013-6-6,74,67,63,60,57,55,80,71,59,0.00,40.00,8,4,20,0.00
2013-6-7,71,66,62,63,59,55,89,79,71,0.00,40.00,12,6,32,0.00
2013-6-8,75,68,62,62,59,56,89,74,59,0.00,40.00,10,8,29,0.00
2013-6-9,75,68,64,62,60,57,85,74,59,0.00,40.00,10,7,28,0.00
2013-6-10,77,69,63,62,60,57,88,74,58,0.00,40.00,9,5,24,0.00
2013-6-11,79,70,64,64,61,59,90,74,52,0.00,40.00,8,5,21,0.00
2013-6-12,77,69,63,65,59,56,86,71,53,0.00,40.00,14,6,39,0.00
2013-6-13,75,68,63,64,61,58,94,79,62,0.00,40.00,11,5,33,0.01
2013-6-14,74,68,62,63,60,56,100,77,61,0.00,40.00,11,7,33,0.07
2013-6-15,75,68,62,62,59,56,87,75,61,0.00,40.00,9,5,30,0.02
2013-6-16,77,69,63,62,59,56,88,70,52,0.00,40.00,10,5,27,0.00
2013-6-17,75,68,63,62,60,57,88,75,60,0.00,40.00,10,6,29,0.00
2013-6-18,77,69,64,63,60,58,88,75,58,0.00,40.00,10,4,27,0.00
2013-6-19,77,70,64,62,58,53,82,68,54,0.00,40.00,10,6,25,0.00